createdAt,value
2018-08-25T00:00:08.933Z,99915.26
2018-08-25T00:01:14.932Z,99915.88
2018-08-25T00:02:21.214Z,99916.58
2018-08-25T00:03:27.195Z,99927.36
2018-08-25T00:04:33.573Z,99923.09
2018-08-25T00:05:39.638Z,99925.07
2018-08-25T00:06:45.951Z,99923.02
2018-08-25T00:07:52.061Z,99925.96
2018-08-25T00:08:58.378Z,99925.41
2018-08-25T00:10:03.752Z,99926.64
2018-08-25T00:11:09.794Z,99926.22
2018-08-25T00:12:16.116Z,99927.45
2018-08-25T00:13:22.056Z,99924.64
2018-08-25T00:14:28.070Z,99922.75
2018-08-25T00:15:34.538Z,99917.91
2018-08-25T00:16:41.741Z,99925.63
2018-08-25T00:17:48.078Z,99916.63
2018-08-25T00:18:54.367Z,99926.38
2018-08-25T00:20:00.828Z,99919.85
2018-08-25T00:21:07.018Z,99924.92
2018-08-25T00:22:13.286Z,99925.13
2018-08-25T00:23:19.297Z,99922.61
2018-08-25T00:24:25.522Z,99926.72
2018-08-25T00:25:32.075Z,99924.84
2018-08-25T00:26:38.934Z,99929.76
2018-08-25T00:27:45.169Z,99923.57
2018-08-25T00:28:52.138Z,99928.94
2018-08-25T00:29:58.401Z,99927.41
2018-08-25T00:31:04.505Z,99918.22
2018-08-25T00:32:10.960Z,99924.92
2018-08-25T00:33:17.257Z,99922.59
2018-08-25T00:34:23.584Z,99918.52
2018-08-25T00:35:29.892Z,99924.98
2018-08-25T00:36:36.964Z,99926.29
2018-08-25T00:37:43.221Z,99923.97
2018-08-25T00:38:49.735Z,99924.92
2018-08-25T00:39:56.188Z,99931.73
2018-08-25T00:41:02.644Z,99929.03
2018-08-25T00:42:08.435Z,99930.75
2018-08-25T00:43:14.488Z,99927.44
2018-08-25T00:44:20.867Z,99924.45
2018-08-25T00:45:26.874Z,99923.64
2018-08-25T00:46:32.956Z,99927.64
2018-08-25T00:47:39.239Z,99923.63
2018-08-25T00:48:45.019Z,99930.16
2018-08-25T00:49:51.140Z,99927.41
2018-08-25T00:50:57.217Z,99927.94
2018-08-25T00:52:03.206Z,99932.67
2018-08-25T00:53:09.581Z,99933.11
2018-08-25T00:54:15.869Z,99932.55
2018-08-25T00:55:21.842Z,99935.80
2018-08-25T00:56:28.146Z,99932.28
2018-08-25T00:57:34.486Z,99934.20
2018-08-25T00:58:40.470Z,99935.84
2018-08-25T00:59:46.940Z,99936.17
2018-08-25T01:00:52.844Z,99930.67
2018-08-25T01:02:00.417Z,99934.39
2018-08-25T01:03:06.308Z,99933.08
2018-08-25T01:04:12.656Z,99930.86
2018-08-25T01:05:18.284Z,99934.51
2018-08-25T01:06:24.301Z,99928.16
2018-08-25T01:07:30.679Z,99929.73
2018-08-25T01:08:37.024Z,99931.00
2018-08-25T01:09:42.950Z,99934.45
2018-08-25T01:10:49.231Z,99930.63
2018-08-25T01:11:55.535Z,99938.55
2018-08-25T01:13:01.544Z,99934.30
2018-08-25T01:14:07.254Z,99940.40
2018-08-25T01:15:13.667Z,99941.97
2018-08-25T01:16:19.936Z,99937.66
2018-08-25T01:17:26.252Z,99938.66
2018-08-25T01:18:32.972Z,99938.94
2018-08-25T01:19:39.245Z,99943.84
2018-08-25T01:20:44.688Z,99942.11
2018-08-25T01:21:50.976Z,99945.00
2018-08-25T01:22:57.087Z,99946.22
2018-08-25T01:24:03.532Z,99941.59
2018-08-25T01:25:09.635Z,99941.30
2018-08-25T01:26:15.595Z,99942.55
2018-08-25T01:27:22.044Z,99946.81
2018-08-25T01:28:28.356Z,99938.38
2018-08-25T01:29:34.722Z,99943.46
2018-08-25T01:30:40.765Z,99939.14
2018-08-25T01:31:47.075Z,99936.55
2018-08-25T01:32:53.415Z,99929.18
2018-08-25T01:33:59.715Z,99928.44
2018-08-25T01:35:05.708Z,99929.07
2018-08-25T01:36:12.021Z,99927.91
2018-08-25T01:37:18.328Z,99920.83
2018-08-25T01:38:26.291Z,99924.62
2018-08-25T01:39:32.478Z,99920.43
2018-08-25T01:40:38.634Z,99920.08
2018-08-25T01:41:44.940Z,99916.76
2018-08-25T01:42:51.243Z,99912.48
2018-08-25T01:44:02.690Z,99917.34
2018-08-25T01:45:09.001Z,99920.09
2018-08-25T01:46:16.256Z,99916.92
2018-08-25T01:47:22.412Z,99914.20
2018-08-25T01:48:28.764Z,99913.76
2018-08-25T01:49:35.016Z,99916.21
2018-08-25T01:50:41.455Z,99909.40
2018-08-25T01:51:47.752Z,99910.36
2018-08-25T01:52:54.088Z,99907.13
2018-08-25T01:54:00.408Z,99902.25
2018-08-25T01:55:06.170Z,99905.81
2018-08-25T01:56:12.636Z,99906.64
2018-08-25T01:57:18.917Z,99906.97
2018-08-25T01:58:24.883Z,99902.75
2018-08-25T01:59:30.948Z,99901.65
2018-08-25T02:00:37.282Z,99901.78
2018-08-25T02:01:43.536Z,99902.87
2018-08-25T02:02:50.138Z,99903.30
2018-08-25T02:03:56.669Z,99902.70
2018-08-25T02:05:03.019Z,99900.06
2018-08-25T02:06:09.261Z,99899.14
2018-08-25T02:07:15.704Z,99901.27
2018-08-25T02:08:22.035Z,99904.73
2018-08-25T02:09:28.332Z,99907.35
2018-08-25T02:10:34.687Z,99903.80
2018-08-25T02:11:41.484Z,99901.27
2018-08-25T02:12:47.807Z,99895.06
2018-08-25T02:13:54.112Z,99893.08
2018-08-25T02:15:00.430Z,99897.31
2018-08-25T02:16:06.363Z,99901.22
2018-08-25T02:17:12.971Z,99897.29
2018-08-25T02:18:19.000Z,99898.72
2018-08-25T02:19:25.290Z,99893.85
2018-08-25T02:20:31.605Z,99889.14
2018-08-25T02:21:37.916Z,99894.72
2018-08-25T02:22:44.899Z,99888.47
2018-08-25T02:23:51.264Z,99889.88
2018-08-25T02:24:57.540Z,99894.47
2018-08-25T02:26:03.843Z,99887.97
2018-08-25T02:27:10.729Z,99874.57
2018-08-25T02:28:17.085Z,99869.56
2018-08-25T02:29:23.595Z,99868.63
2018-08-25T02:30:29.931Z,99862.83
2018-08-25T02:31:36.218Z,99858.66
2018-08-25T02:32:42.519Z,99859.18
2018-08-25T02:33:48.885Z,99857.98
2018-08-25T02:34:55.142Z,99855.57
2018-08-25T02:36:02.032Z,99862.59
2018-08-25T02:37:08.636Z,99862.09
2018-08-25T02:38:14.848Z,99858.45
2018-08-25T02:39:20.770Z,99866.83
2018-08-25T02:40:26.593Z,99863.76
2018-08-25T02:41:32.971Z,99859.17
2018-08-25T02:42:38.727Z,99859.30
2018-08-25T02:43:45.082Z,99858.05
2018-08-25T02:44:51.320Z,99853.69
2018-08-25T02:45:59.537Z,99852.61
2018-08-25T02:47:06.287Z,99851.05
2018-08-25T02:48:12.804Z,99842.88
2018-08-25T02:49:19.055Z,99839.80
2018-08-25T02:50:25.791Z,99843.04
2018-08-25T02:51:31.879Z,99845.20
2018-08-25T02:52:38.199Z,99842.40
2018-08-25T02:53:44.152Z,99842.78
2018-08-25T02:54:50.443Z,99837.50
2018-08-25T02:55:57.307Z,99835.84
2018-08-25T02:57:03.532Z,99836.43
2018-08-25T02:58:09.948Z,99835.37
2018-08-25T02:59:16.267Z,99826.71
2018-08-25T03:00:22.584Z,99831.47
2018-08-25T03:01:28.935Z,99830.73
2018-08-25T03:02:35.212Z,99830.61
2018-08-25T03:03:41.519Z,99824.88
2018-08-25T03:04:47.863Z,99822.97
2018-08-25T03:05:54.191Z,99820.00
2018-08-25T03:07:00.475Z,99826.86
2018-08-25T03:08:06.748Z,99820.02
2018-08-25T03:09:13.013Z,99818.53
2018-08-25T03:10:19.264Z,99821.97
2018-08-25T03:11:25.507Z,99815.59
2018-08-25T03:12:31.831Z,99819.06
2018-08-25T03:13:38.304Z,99816.00
2018-08-25T03:14:45.837Z,99809.48
2018-08-25T03:15:51.891Z,99821.66
2018-08-25T03:16:58.275Z,99814.63
2018-08-25T03:18:04.597Z,99815.95
2018-08-25T03:19:10.569Z,99813.10
2018-08-25T03:20:16.823Z,99812.42
2018-08-25T03:21:23.165Z,99820.27
2018-08-25T03:22:29.435Z,99814.00
2018-08-25T03:23:35.688Z,99815.10
2018-08-25T03:24:41.897Z,99811.61
2018-08-25T03:25:48.291Z,99810.03
2018-08-25T03:26:55.267Z,99814.20
2018-08-25T03:28:01.623Z,99816.89
2018-08-25T03:29:07.907Z,99820.91
2018-08-25T03:30:14.228Z,99817.84
2018-08-25T03:31:20.641Z,99813.62
2018-08-25T03:32:26.965Z,99821.96
2018-08-25T03:33:33.964Z,99820.85
2018-08-25T03:34:40.344Z,99819.58
2018-08-25T03:35:46.615Z,99818.42
2018-08-25T03:36:53.198Z,99819.32
2018-08-25T03:37:59.434Z,99825.55
2018-08-25T03:39:05.056Z,99824.65
2018-08-25T03:40:11.304Z,99830.47
2018-08-25T03:41:17.601Z,99823.30
2018-08-25T03:42:24.010Z,99827.25
2018-08-25T03:43:30.042Z,99827.81
2018-08-25T03:44:36.876Z,99825.41
2018-08-25T03:45:43.099Z,99824.95
2018-08-25T03:46:49.459Z,99829.83
2018-08-25T03:47:55.776Z,99829.61
2018-08-25T03:49:01.845Z,99824.98
2018-08-25T03:50:07.833Z,99825.74
2018-08-25T03:51:14.301Z,99828.38
2018-08-25T03:52:20.825Z,99821.14
2018-08-25T03:53:26.987Z,99829.02
2018-08-25T03:54:33.342Z,99825.83
2018-08-25T03:55:39.631Z,99828.81
2018-08-25T03:56:45.956Z,99827.02
2018-08-25T03:57:52.347Z,99826.30
2018-08-25T03:58:59.835Z,99830.43
2018-08-25T04:00:05.773Z,99831.54
2018-08-25T04:01:12.271Z,99825.92
2018-08-25T04:02:18.526Z,99828.17
2018-08-25T04:03:24.820Z,99825.02
2018-08-25T04:04:31.165Z,99824.18
2018-08-25T04:05:37.464Z,99825.59
2018-08-25T04:06:43.796Z,99822.06
2018-08-25T04:07:50.081Z,99820.01
2018-08-25T04:08:56.388Z,99820.95
2018-08-25T04:10:01.994Z,99823.97
2018-08-25T04:11:08.732Z,99824.48
2018-08-25T04:12:15.253Z,99823.37
2018-08-25T04:13:21.542Z,99818.10
2018-08-25T04:14:27.836Z,99822.05
2018-08-25T04:15:34.176Z,99822.17
2018-08-25T04:16:40.686Z,99822.69
2018-08-25T04:17:47.089Z,99825.50
2018-08-25T04:18:53.410Z,99820.22
2018-08-25T04:19:59.407Z,99825.97
2018-08-25T04:21:05.740Z,99815.88
2018-08-25T04:22:12.291Z,99818.98
2018-08-25T04:23:18.644Z,99821.16
2018-08-25T04:24:24.993Z,99814.77
2018-08-25T04:25:31.280Z,99811.57
2018-08-25T04:26:37.930Z,99808.30
2018-08-25T04:27:44.207Z,99812.09
2018-08-25T04:28:50.563Z,99807.53
2018-08-25T04:29:56.990Z,99812.13
2018-08-25T04:31:03.365Z,99806.30
2018-08-25T04:32:09.731Z,99807.84
2018-08-25T04:33:16.029Z,99807.88
2018-08-25T04:34:22.524Z,99804.60
2018-08-25T04:35:28.839Z,99801.83
2018-08-25T04:36:34.915Z,99803.11
2018-08-25T04:37:41.203Z,99801.62
2018-08-25T04:38:47.549Z,99797.05
2018-08-25T04:39:53.836Z,99803.01
2018-08-25T04:41:00.371Z,99800.41
2018-08-25T04:42:06.701Z,99805.56
2018-08-25T04:43:13.531Z,99801.22
2018-08-25T04:44:19.796Z,99801.90
2018-08-25T04:45:26.098Z,99805.60
2018-08-25T04:46:32.423Z,99805.19
2018-08-25T04:47:38.808Z,99802.97
2018-08-25T04:48:45.048Z,99806.45
2018-08-25T04:49:51.603Z,99802.42
2018-08-25T04:50:57.871Z,99804.87
2018-08-25T04:52:03.983Z,99806.55
2018-08-25T04:53:11.068Z,99808.22
2018-08-25T04:54:17.204Z,99806.47
2018-08-25T04:55:23.579Z,99808.91
2018-08-25T04:56:29.642Z,99805.42
2018-08-25T04:57:35.855Z,99808.36
2018-08-25T04:58:42.315Z,99804.12
2018-08-25T04:59:48.613Z,99806.34
2018-08-25T05:00:55.860Z,99806.17
2018-08-25T05:02:02.234Z,99808.03
2018-08-25T05:03:08.792Z,99815.15
2018-08-25T05:04:15.088Z,99811.36
2018-08-25T05:05:21.366Z,99809.78
2018-08-25T05:06:27.737Z,99809.14
2018-08-25T05:07:34.027Z,99813.36
2018-08-25T05:08:40.585Z,99809.66
2018-08-25T05:09:46.719Z,99808.61
2018-08-25T05:10:53.039Z,99811.20
2018-08-25T05:11:59.384Z,99807.11
2018-08-25T05:13:05.685Z,99814.27
2018-08-25T05:14:11.981Z,99823.54
2018-08-25T05:15:18.317Z,99820.55
2018-08-25T05:16:24.645Z,99827.41
2018-08-25T05:17:30.744Z,99828.00
2018-08-25T05:18:37.259Z,99827.19
2018-08-25T05:19:43.666Z,99829.74
2018-08-25T05:20:49.945Z,99825.78
2018-08-25T05:21:56.312Z,99833.37
2018-08-25T05:23:02.913Z,99825.14
2018-08-25T05:24:09.224Z,99826.00
2018-08-25T05:25:15.527Z,99830.09
2018-08-25T05:26:21.816Z,99831.88
2018-08-25T05:27:28.147Z,99828.55
2018-08-25T05:28:34.459Z,99832.00
2018-08-25T05:29:40.739Z,99831.91
2018-08-25T05:30:47.069Z,99835.05
2018-08-25T05:31:53.410Z,99832.97
2018-08-25T05:32:59.698Z,99830.84
2018-08-25T05:34:06.003Z,99830.94
2018-08-25T05:35:12.302Z,99838.02
2018-08-25T05:36:18.621Z,99834.20
2018-08-25T05:37:24.967Z,99828.34
2018-08-25T05:38:31.801Z,99826.98
2018-08-25T05:39:37.746Z,99824.13
2018-08-25T05:40:44.075Z,99829.12
2018-08-25T05:41:50.396Z,99825.20
2018-08-25T05:42:56.712Z,99826.42
2018-08-25T05:44:03.062Z,99822.48
2018-08-25T05:45:09.657Z,99824.93
2018-08-25T05:46:15.927Z,99818.20
2018-08-25T05:47:21.759Z,99819.53
2018-08-25T05:48:28.194Z,99819.25
2018-08-25T05:49:35.845Z,99825.50
2018-08-25T05:50:43.597Z,99821.01
2018-08-25T05:51:52.293Z,99825.17
2018-08-25T05:53:01.037Z,99819.44
2018-08-25T05:54:07.919Z,99813.45
2018-08-25T05:55:14.234Z,99821.56
2018-08-25T05:56:21.705Z,99818.81
2018-08-25T05:57:29.947Z,99820.31
2018-08-25T05:58:37.457Z,99813.50
2018-08-25T05:59:45.065Z,99805.60
2018-08-25T06:00:52.472Z,99812.77
2018-08-25T06:01:59.869Z,99807.53
2018-08-25T06:03:06.083Z,99812.64
2018-08-25T06:04:12.400Z,99815.48
2018-08-25T06:05:18.706Z,99811.31
2018-08-25T06:06:25.043Z,99813.06
2018-08-25T06:07:31.558Z,99812.91
2018-08-25T06:08:37.879Z,99808.19
2018-08-25T06:09:44.119Z,99811.66
2018-08-25T06:10:51.291Z,99816.28
2018-08-25T06:11:58.718Z,99815.88
2018-08-25T06:13:05.629Z,99814.04
2018-08-25T06:14:14.558Z,99810.45
2018-08-25T06:15:22.087Z,99809.47
2018-08-25T06:16:28.792Z,99809.69
2018-08-25T06:17:37.887Z,99806.53
2018-08-25T06:18:44.407Z,99806.33
2018-08-25T06:19:51.439Z,99809.45
2018-08-25T06:20:58.411Z,99804.85
2018-08-25T06:22:04.432Z,99803.10
2018-08-25T06:23:12.699Z,99804.34
2018-08-25T06:24:19.375Z,99813.48
2018-08-25T06:25:27.400Z,99806.43
2018-08-25T06:26:34.099Z,99815.22
2018-08-25T06:27:41.008Z,99812.97
2018-08-25T06:28:47.260Z,99807.78
2018-08-25T06:29:55.086Z,99809.17
2018-08-25T06:31:02.112Z,99806.36
2018-08-25T06:32:08.809Z,99805.77
2018-08-25T06:33:15.503Z,99810.11
2018-08-25T06:34:23.160Z,99806.20
2018-08-25T06:35:30.005Z,99806.03
2018-08-25T06:36:37.132Z,99803.95
2018-08-25T06:37:44.869Z,99798.47
2018-08-25T06:38:50.804Z,99802.44
2018-08-25T06:39:57.852Z,99800.64
2018-08-25T06:41:04.277Z,99806.89
2018-08-25T06:42:12.378Z,99806.36
2018-08-25T06:43:20.259Z,99804.42
2018-08-25T06:44:27.286Z,99799.68
2018-08-25T06:45:35.445Z,99801.65
2018-08-25T06:46:42.734Z,99801.59
2018-08-25T06:47:49.927Z,99799.70
2018-08-25T06:48:56.525Z,99804.72
2018-08-25T06:50:04.175Z,99804.67
2018-08-25T06:51:11.300Z,99805.36
2018-08-25T06:52:18.551Z,99801.44
2018-08-25T06:53:25.606Z,99805.85
2018-08-25T06:54:32.798Z,99806.98
2018-08-25T06:55:39.719Z,99806.46
2018-08-25T06:56:47.289Z,99811.56
2018-08-25T06:57:53.762Z,99807.16
2018-08-25T06:59:00.702Z,99803.74
2018-08-25T07:00:09.158Z,99802.34
2018-08-25T07:01:16.784Z,99803.91
2018-08-25T07:02:23.735Z,99803.31
2018-08-25T07:03:30.020Z,99810.16
2018-08-25T07:04:36.936Z,99810.23
2018-08-25T07:05:43.647Z,99810.45
2018-08-25T07:06:51.429Z,99811.09
2018-08-25T07:07:58.568Z,99814.00
2018-08-25T07:09:05.352Z,99810.19
2018-08-25T07:10:11.652Z,99805.44
2018-08-25T07:11:17.964Z,99811.58
2018-08-25T07:12:24.737Z,99819.91
2018-08-25T07:13:31.620Z,99810.61
2018-08-25T07:14:38.732Z,99816.28
2018-08-25T07:15:45.475Z,99808.14
2018-08-25T07:16:51.925Z,99815.61
2018-08-25T07:18:00.366Z,99809.62
2018-08-25T07:19:07.584Z,99812.48
2018-08-25T07:20:14.448Z,99803.58
2018-08-25T07:21:21.541Z,99807.72
2018-08-25T07:22:27.928Z,99807.05
2018-08-25T07:23:35.382Z,99810.09
2018-08-25T07:24:43.185Z,99807.58
2018-08-25T07:25:50.640Z,99810.39
2018-08-25T07:26:57.626Z,99807.14
2018-08-25T07:28:04.759Z,99808.28
2018-08-25T07:29:13.027Z,99807.54
2018-08-25T07:30:19.964Z,99806.11
2018-08-25T07:31:26.983Z,99808.55
2018-08-25T07:32:33.378Z,99814.03
2018-08-25T07:33:39.727Z,99808.39
2018-08-25T07:34:46.536Z,99806.76
2018-08-25T07:35:52.947Z,99799.68
2018-08-25T07:36:59.916Z,99803.94
2018-08-25T07:38:07.151Z,99798.13
2018-08-25T07:39:13.643Z,99806.41
2018-08-25T07:40:20.584Z,99797.53
2018-08-25T07:41:26.937Z,99804.17
2018-08-25T07:42:35.952Z,99802.58
2018-08-25T07:43:42.871Z,99806.09
2018-08-25T07:44:49.688Z,99802.66
2018-08-25T07:45:56.724Z,99809.63
2018-08-25T07:47:03.333Z,99805.33
2018-08-25T07:48:10.364Z,99808.08
2018-08-25T07:49:17.925Z,99802.39
2018-08-25T07:50:24.930Z,99804.31
2018-08-25T07:51:31.332Z,99813.40
2018-08-25T07:52:37.635Z,99801.36
2018-08-25T07:53:44.358Z,99801.19
2018-08-25T07:54:51.840Z,99801.34
2018-08-25T07:55:58.776Z,99800.34
2018-08-25T07:57:05.994Z,99799.47
2018-08-25T07:58:13.192Z,99795.25
2018-08-25T07:59:19.906Z,99801.20
2018-08-25T08:00:27.239Z,99800.27
2018-08-25T08:01:34.088Z,99797.55
2018-08-25T08:02:43.340Z,99795.73
2018-08-25T08:03:49.792Z,99797.31
2018-08-25T08:04:56.504Z,99801.51
2018-08-25T08:06:03.119Z,99795.25
2018-08-25T08:07:11.276Z,99794.15
2018-08-25T08:08:18.031Z,99791.48
2018-08-25T08:09:25.208Z,99799.11
2018-08-25T08:10:32.573Z,99796.95
2018-08-25T08:11:38.846Z,99798.84
2018-08-25T08:12:45.163Z,99796.24
2018-08-25T08:13:51.173Z,99803.74
2018-08-25T08:14:57.159Z,99795.89
2018-08-25T08:16:03.591Z,99789.66
2018-08-25T08:17:09.875Z,99793.92
2018-08-25T08:18:16.220Z,99790.09
2018-08-25T08:19:22.226Z,99796.36
2018-08-25T08:20:28.512Z,99792.81
2018-08-25T08:21:34.810Z,99789.88
2018-08-25T08:22:41.231Z,99778.31
2018-08-25T08:23:47.507Z,99782.22
2018-08-25T08:24:54.654Z,99788.26
2018-08-25T08:26:01.396Z,99782.47
2018-08-25T08:27:07.865Z,99783.38
2018-08-25T08:28:14.149Z,99781.64
2018-08-25T08:29:20.569Z,99786.25
2018-08-25T08:30:26.831Z,99780.99
2018-08-25T08:31:33.046Z,99783.48
2018-08-25T08:32:39.398Z,99773.83
2018-08-25T08:33:45.705Z,99775.89
2018-08-25T08:34:51.710Z,99772.17
2018-08-25T08:35:58.051Z,99773.50
2018-08-25T08:37:04.310Z,99766.70
2018-08-25T08:38:09.732Z,99768.05
2018-08-25T08:39:15.721Z,99777.34
2018-08-25T08:40:22.124Z,99772.23
2018-08-25T08:41:28.540Z,99777.83
2018-08-25T08:42:34.831Z,99770.75
2018-08-25T08:43:40.883Z,99769.51
2018-08-25T08:44:47.302Z,99771.57
2018-08-25T08:45:53.405Z,99774.11
2018-08-25T08:46:59.534Z,99772.22
2018-08-25T08:48:05.895Z,99778.39
2018-08-25T08:49:13.789Z,99771.69
2018-08-25T08:50:20.088Z,99783.16
2018-08-25T08:51:27.049Z,99768.32
2018-08-25T08:52:33.231Z,99763.63
2018-08-25T08:53:39.523Z,99765.98
2018-08-25T08:54:45.831Z,99771.03
2018-08-25T08:55:52.131Z,99770.45
2018-08-25T08:56:58.464Z,99764.35
2018-08-25T08:58:04.818Z,99758.50
2018-08-25T08:59:11.185Z,99761.88
2018-08-25T09:00:17.164Z,99763.14
2018-08-25T09:01:23.575Z,99760.83
2018-08-25T09:02:29.718Z,99765.23
2018-08-25T09:03:36.026Z,99757.03
2018-08-25T09:04:42.333Z,99756.53
2018-08-25T09:05:48.951Z,99759.06
2018-08-25T09:06:55.267Z,99747.80
2018-08-25T09:08:01.690Z,99754.31
2018-08-25T09:09:07.658Z,99755.83
2018-08-25T09:10:14.008Z,99754.44
2018-08-25T09:11:20.354Z,99756.52
2018-08-25T09:12:26.691Z,99754.81
2018-08-25T09:13:33.035Z,99759.55
2018-08-25T09:14:39.366Z,99767.83
2018-08-25T09:15:45.669Z,99759.54
2018-08-25T09:16:51.981Z,99754.95
2018-08-25T09:17:58.063Z,99754.44
2018-08-25T09:19:04.026Z,99754.65
2018-08-25T09:20:10.531Z,99751.70
2018-08-25T09:21:17.540Z,99758.52
2018-08-25T09:22:23.845Z,99753.86
2018-08-25T09:23:30.158Z,99750.99
2018-08-25T09:24:37.061Z,99746.59
2018-08-25T09:25:43.263Z,99756.18
2018-08-25T09:26:49.613Z,99748.28
2018-08-25T09:27:55.904Z,99755.72
2018-08-25T09:29:02.228Z,99743.30
2018-08-25T09:30:08.325Z,99751.02
2018-08-25T09:31:15.214Z,99751.51
2018-08-25T09:32:22.059Z,99754.78
2018-08-25T09:33:28.299Z,99749.53
2018-08-25T09:34:34.633Z,99747.70
2018-08-25T09:35:40.925Z,99750.23
2018-08-25T09:36:47.453Z,99748.34
2018-08-25T09:37:53.542Z,99745.12
2018-08-25T09:38:59.965Z,99745.67
2018-08-25T09:40:05.717Z,99746.11
2018-08-25T09:41:12.039Z,99739.86
2018-08-25T09:42:18.235Z,99744.98
2018-08-25T09:43:25.294Z,99741.14
2018-08-25T09:44:31.652Z,99745.40
2018-08-25T09:45:38.037Z,99738.13
2018-08-25T09:46:44.312Z,99737.41
2018-08-25T09:47:50.644Z,99746.94
2018-08-25T09:48:56.946Z,99740.50
2018-08-25T09:50:03.333Z,99746.09
2018-08-25T09:51:10.169Z,99743.50
2018-08-25T09:52:16.383Z,99742.38
2018-08-25T09:53:22.729Z,99741.05
2018-08-25T09:54:29.049Z,99743.52
2018-08-25T09:55:35.375Z,99741.69
2018-08-25T09:56:41.677Z,99743.85
2018-08-25T09:57:47.971Z,99739.38
2018-08-25T09:58:54.345Z,99740.84
2018-08-25T10:00:00.813Z,99740.58
2018-08-25T10:01:06.881Z,99740.72
2018-08-25T10:02:13.092Z,99742.27
2018-08-25T10:03:19.721Z,99730.55
2018-08-25T10:04:26.566Z,99743.17
2018-08-25T10:05:33.675Z,99736.93
2018-08-25T10:06:39.887Z,99740.58
2018-08-25T10:07:46.823Z,99741.83
2018-08-25T10:08:53.354Z,99737.34
2018-08-25T10:09:59.745Z,99734.97
2018-08-25T10:11:05.432Z,99731.95
2018-08-25T10:12:11.722Z,99737.34
2018-08-25T10:13:17.996Z,99729.72
2018-08-25T10:14:24.318Z,99730.06
2018-08-25T10:15:30.623Z,99732.23
2018-08-25T10:16:37.049Z,99742.05
2018-08-25T10:17:43.608Z,99734.09
2018-08-25T10:18:49.914Z,99737.27
2018-08-25T10:19:56.240Z,99733.69
2018-08-25T10:21:02.581Z,99739.70
2018-08-25T10:22:09.028Z,99730.17
2018-08-25T10:23:15.275Z,99740.48
2018-08-25T10:24:21.944Z,99742.73
2018-08-25T10:25:28.253Z,99723.89
2018-08-25T10:26:34.552Z,99728.22
2018-08-25T10:27:40.654Z,99730.91
2018-08-25T10:28:46.945Z,99737.98
2018-08-25T10:29:53.256Z,99733.21
2018-08-25T10:30:59.603Z,99735.25
2018-08-25T10:32:06.285Z,99736.23
2018-08-25T10:33:12.658Z,99739.33
2018-08-25T10:34:19.459Z,99729.21
2018-08-25T10:35:25.863Z,99737.71
2018-08-25T10:36:32.144Z,99731.27
2018-08-25T10:37:38.555Z,99737.41
2018-08-25T10:38:44.832Z,99748.12
2018-08-25T10:39:51.143Z,99741.84
2018-08-25T10:40:57.355Z,99743.71
2018-08-25T10:42:03.645Z,99750.36
2018-08-25T10:43:10.125Z,99757.55
2018-08-25T10:44:16.476Z,99750.54
2018-08-25T10:45:22.744Z,99744.10
2018-08-25T10:46:29.092Z,99749.53
2018-08-25T10:47:36.182Z,99744.53
2018-08-25T10:48:42.457Z,99753.56
2018-08-25T10:49:48.736Z,99752.56
2018-08-25T10:50:55.055Z,99757.51
2018-08-25T10:52:01.114Z,99757.14
2018-08-25T10:53:07.571Z,99775.05
2018-08-25T10:54:14.325Z,99765.09
2018-08-25T10:55:20.623Z,99749.84
2018-08-25T10:56:26.244Z,99770.25
2018-08-25T10:57:32.540Z,99777.64
2018-08-25T10:58:38.832Z,99779.33
2018-08-25T10:59:45.619Z,99777.05
2018-08-25T11:00:52.005Z,99779.62
2018-08-25T11:01:58.339Z,99787.13
2018-08-25T11:03:04.730Z,99784.84
2018-08-25T11:04:11.004Z,99787.67
2018-08-25T11:05:17.333Z,99783.37
2018-08-25T11:06:23.616Z,99786.38
2018-08-25T11:07:30.523Z,99782.17
2018-08-25T11:08:36.840Z,99792.58
2018-08-25T11:09:43.255Z,99794.09
2018-08-25T11:10:49.485Z,99790.67
2018-08-25T11:11:55.904Z,99796.75
2018-08-25T11:13:02.365Z,99788.22
2018-08-25T11:14:08.800Z,99794.56
2018-08-25T11:15:15.041Z,99804.43
2018-08-25T11:16:21.147Z,99790.74
2018-08-25T11:17:27.447Z,99798.59
2018-08-25T11:18:33.754Z,99805.91
2018-08-25T11:19:39.984Z,99799.68
2018-08-25T11:20:46.304Z,99801.59
2018-08-25T11:21:52.582Z,99800.34
2018-08-25T11:22:58.785Z,99808.08
2018-08-25T11:24:05.007Z,99813.97
2018-08-25T11:25:11.308Z,99812.25
2018-08-25T11:26:17.578Z,99812.66
2018-08-25T11:27:23.872Z,99804.83
2018-08-25T11:28:30.145Z,99811.31
2018-08-25T11:29:36.720Z,99808.96
2018-08-25T11:30:43.290Z,99814.21
2018-08-25T11:31:49.619Z,99809.42
2018-08-25T11:32:55.740Z,99808.73
2018-08-25T11:34:02.022Z,99817.08
2018-08-25T11:35:08.058Z,99819.13
2018-08-25T11:36:15.258Z,99818.65
2018-08-25T11:37:22.053Z,99817.08
2018-08-25T11:38:28.605Z,99828.95
2018-08-25T11:39:34.899Z,99817.32
2018-08-25T11:40:41.215Z,99828.20
2018-08-25T11:41:47.564Z,99827.66
2018-08-25T11:42:54.050Z,99827.56
2018-08-25T11:44:00.284Z,99815.32
2018-08-25T11:45:06.424Z,99824.66
2018-08-25T11:46:12.701Z,99825.58
2018-08-25T11:47:18.976Z,99830.86
2018-08-25T11:48:25.217Z,99829.77
2018-08-25T11:49:31.542Z,99827.95
2018-08-25T11:50:37.793Z,99826.53
2018-08-25T11:51:44.162Z,99830.08
2018-08-25T11:52:50.436Z,99829.83
2018-08-25T11:53:57.281Z,99827.61
2018-08-25T11:55:03.779Z,99825.45
2018-08-25T11:56:10.027Z,99825.02
2018-08-25T11:57:16.342Z,99823.95
2018-08-25T11:58:22.600Z,99821.52
2018-08-25T11:59:28.936Z,99818.87
2018-08-25T12:00:34.904Z,99816.05
2018-08-25T12:01:40.940Z,99815.31
2018-08-25T12:02:47.314Z,99815.50
2018-08-25T12:03:53.617Z,99815.09
2018-08-25T12:04:59.914Z,99819.31
2018-08-25T12:06:05.859Z,99818.27
2018-08-25T12:07:12.411Z,99816.77
2018-08-25T12:08:18.746Z,99817.28
2018-08-25T12:09:25.052Z,99820.82
2018-08-25T12:10:31.340Z,99811.30
2018-08-25T12:11:38.415Z,99805.33
2018-08-25T12:12:44.782Z,99801.72
2018-08-25T12:13:51.104Z,99802.65
2018-08-25T12:14:57.417Z,99800.49
2018-08-25T12:16:03.708Z,99802.31
2018-08-25T12:17:09.972Z,99793.19
2018-08-25T12:18:16.235Z,99792.97
2018-08-25T12:19:22.333Z,99796.85
2018-08-25T12:20:28.562Z,99788.30
2018-08-25T12:21:34.895Z,99788.20
2018-08-25T12:22:41.293Z,99784.77
2018-08-25T12:23:47.614Z,99791.45
2018-08-25T12:24:53.896Z,99781.84
2018-08-25T12:26:00.680Z,99774.61
2018-08-25T12:27:06.727Z,99792.25
2018-08-25T12:28:12.935Z,99779.02
2018-08-25T12:29:19.764Z,99786.39
2018-08-25T12:30:26.114Z,99790.80
2018-08-25T12:31:32.514Z,99782.47
2018-08-25T12:32:38.819Z,99784.48
2018-08-25T12:33:45.109Z,99787.04
2018-08-25T12:34:51.384Z,99782.14
2018-08-25T12:35:57.676Z,99784.97
2018-08-25T12:37:04.945Z,99785.44
2018-08-25T12:38:11.183Z,99796.70
2018-08-25T12:39:17.493Z,99789.75
2018-08-25T12:40:24.041Z,99782.45
2018-08-25T12:41:30.447Z,99785.49
2018-08-25T12:42:36.772Z,99785.44
2018-08-25T12:43:43.101Z,99786.88
2018-08-25T12:44:49.163Z,99788.93
2018-08-25T12:45:55.599Z,99789.42
2018-08-25T12:47:01.590Z,99793.13
2018-08-25T12:48:07.995Z,99789.97
2018-08-25T12:49:14.293Z,99796.61
2018-08-25T12:50:20.615Z,99798.92
2018-08-25T12:51:26.934Z,99807.51
2018-08-25T12:52:33.270Z,99801.97
2018-08-25T12:53:39.580Z,99807.85
2018-08-25T12:54:45.916Z,99800.92
2018-08-25T12:55:52.830Z,99801.95
2018-08-25T12:56:59.137Z,99802.76
2018-08-25T12:58:04.731Z,99805.11
2018-08-25T12:59:11.246Z,99798.66
2018-08-25T13:00:17.926Z,99800.22